Tiempo atmosférico en la estación meteorológica de Ledesma, Salamanca (790 m.)



Fecha
DESCASC
Temp. máxima en grados centígrados (hora)
DESCASC
Temp. mínima en grados centígrados (hora)
DESCASC
Temp. media en grados centígrados
DESCASC
Racha de viento máxima en m/sg (hora)
DESCASC
Velocidad máxima media en intervalos de 10 minutos(hora)
DESCASC
Precipitaciones diarias en mm
DESCASC
Precipitaciones de 00:00 a 06:00 en mm
DESCASC
Precipitaciones de 06:00 a 12:00 en mm
DESCASC
Precipitaciones de 12:00 a 18:00 en mm
DESCASC
Precipitaciones de 18:00 a 24:00 en mm
DESCASC
31-03-2020 9.7 (18:10) 0.1 (08:20) 4.9 12.22 (10:30) 7.78 (10:00) 0.6 0 0 0.4 0.2
29-03-2020 16.8 (18:10) -1 (-00:0) 7.9 9.72 (23:50) 7.22 (23:59) 0 0 0 0 0
28-03-2020 14.8 (16:10) -2.9 (-00:0) 6 7.78 (09:10) 5.83 (09:10) 0 0 0 0 0
27-03-2020 11.3 (17:10) 0.2 (00:00) 5.8 10.83 (13:00) 6.94 (12:40) 0 0 0 0 0
26-03-2020 16.8 (17:40) -1.5 (-00:0) 7.6 8.61 (23:20) 5 (23:20) 0 0 0 0 0
25-03-2020 18.5 (17:30) 1.9 (00:00) 10.2 9.17 (18:10) 5 (16:20) 0 0 0 0 0
24-03-2020 15 (16:10) 3.6 (00:00) 9.3 10.28 (07:00) 6.11 (08:30) 0 0 0 0 0
23-03-2020 14.1 (16:00) 4.1 (00:00) 9.1 8.89 (09:20) 6.39 (08:30) 0.2 0 0 0 0.2
22-03-2020 13.7 (17:10) 4.6 (03:10) 9.1 7.22 (18:20) 4.17 (18:20) 0.4 0.2 0 0.2 0
21-03-2020 9.3 (15:30) 6.6 (00:00) 8 6.67 (02:00) 3.33 (03:30) 4 0.2 2.2 1.4 0.2
20-03-2020 12.7 (10:50) 8.1 (00:00) 10.4 6.67 (15:00) 3.61 (21:10) 5.6 0 0 4.8 0.8
19-03-2020 14.7 (15:40) 6.3 (00:00) 10.5 5.83 (05:20) 4.17 (05:20) 0 0 0 0 0
18-03-2020 16.2 (17:10) 5.8 (00:00) 11 10 (06:40) 7.5 (06:40) 0 0 0 0 0
17-03-2020 14 (17:50) 4.6 (00:00) 9.3 15 (01:50) 10.56 (01:30) 1.4 1.2 0.2 0 0
16-03-2020 7.8 (15:50) 0.5 (00:00) 4.2 14.17 (23:59) 9.17 (14:40) 9.2 1.8 3.6 2.2 1.6
15-03-2020 15.9 (14:00) -1.4 (-00:0) 7.2 14.17 (19:40) 8.33 (19:40) 0 0 0 0 0
14-03-2020 19.6 (17:40) 0.2 (00:00) 9.9 5.56 (11:10) 4.17 (11:30) 0 0 0 0 0
13-03-2020 14.7 (17:20) 6.1 (06:40) 10.4 10.28 (00:20) 7.22 (00:20) 0 0 0 0 0
12-03-2020 21 (15:00) 7 (00:00) 14 10.56 (23:59) 7.5 (23:50) 0 0 0 0 0
11-03-2020 23.4 (17:10) 2.9 (00:00) 13.1 6.39 (14:50) 3.61 (14:50) 0 0 0 0 0
10-03-2020 20.6 (17:30) 2.6 (00:00) 11.6 6.67 (15:40) 4.17 (17:40) 0 0 0 0 0
09-03-2020 15.1 (16:40) 2.6 (00:00) 8.9 5.83 (01:50) 3.33 (02:00) 0 0 0 0 0
08-03-2020 11.7 (17:40) -0.8 (-00:0) 5.4 8.61 (17:40) 4.72 (17:10) 0 0 0 0 0
07-03-2020 14.1 (17:30) 0.6 (00:00) 7.4 4.72 (00:30) 2.78 (16:40) 0 0 0 0 0
06-03-2020 10.3 (16:50) 4 (00:00) 7.2 13.33 (10:40) 7.22 (10:00) 2 1.6 0.4 0 0
05-03-2020 11.7 (15:30) 4.9 (00:00) 8.3 18.61 (08:30) 9.17 (08:30) 7 0.2 3.8 2.4 0.6
04-03-2020 13.6 (15:30) 9.1 (08:30) 11.4 9.72 (13:40) 5.56 (13:40) 0.2 0.2 0 0 0
03-03-2020 15.3 (15:30) 4.1 (00:00) 9.7 15.83 (13:30) 8.89 (13:30) 0.4 0 0 0.4 0

Gráficas

Temp. máximas Temp. mínimas Temp. medias Precipitaciones Rachas de viento máximas Velocidades máximas media en intervalos de 10 minutos

Datos horarios

Fecha y hora oficial Temperatura (ºC) Velocidad del viento (km/h) Dirección del viento Racha (km/h) Dirección de racha Precipitación (mm) Presión (hPa) Tendencia (hPa) Humedad (%)
2020-04-01 23:00:00 7.2 11 Este 21 Este 0 -- -- 85
2020-04-01 22:00:00 3.1 3 Nordeste 5 Nordeste 0 -- -- 85
2020-04-01 21:00:00 7.9 0 Calma 8 Oeste 0 -- -- 67
2020-04-01 20:00:00 12.2 5 Oeste 12 Oeste 0 -- -- 50
2020-04-01 19:00:00 11.2 7 Sudoeste 20 Sudoeste 0 -- -- 53
2020-04-01 18:00:00 11.9 5 Oeste 24 Sudoeste 0 -- -- 54
2020-04-01 17:00:00 11.8 8 Sudoeste 17 Sudoeste 0 -- -- 53
2020-04-01 16:00:00 11.8 5 Noroeste 17 Sur 0 -- -- 60
2020-04-01 15:00:00 9.9 4 Nordeste 10 Nordeste 0 -- -- 69
2020-04-01 14:00:00 6.8 5 Noroeste 10 Oeste 0 -- -- 76
2020-04-01 13:00:00 6.6 4 Noroeste 11 Oeste 0 -- -- 71
2020-04-01 12:00:00 5.6 3 Noroeste 7 Noroeste 0 -- -- 72
2020-04-01 11:00:00 4.6 2 Noroeste 6 Sudoeste 0 -- -- 79
2020-04-01 10:00:00 3.2 0 Calma 4 Oeste 0 -- -- 90
2020-04-01 09:00:00 0.7 0 Calma 6 Nordeste 0 -- -- 97
2020-04-01 08:00:00 -1 3 Nordeste 5 Nordeste 0 -- -- 93
2020-04-01 07:00:00 1.4 2 Norte 6 Oeste 0 -- -- 86
2020-04-01 06:00:00 4.1 5 Oeste 18 Oeste 0 -- -- 88
2020-04-01 05:00:00 5.7 3 Noroeste 9 Sudoeste 0 -- -- 94
2020-04-01 04:00:00 6.5 0 Calma 9 Oeste 0 -- -- 94
2020-04-01 03:00:00 6.6 4 Sudoeste 10 Sudoeste 0 -- -- 94
2020-04-01 02:00:00 6.3 3 Sudoeste 6 Oeste 0 -- -- 95
2020-04-01 01:00:00 6.5 3 Sur 13 Sudoeste 0 -- -- 92
2020-04-01 00:00:00 6.9 5 Sudeste 11 Sudeste 0 -- -- 92
2020-03-31 23:00:00 7.6 4 Este 16 Este 0.2 -- -- 89
2020-03-31 22:00:00 8.1 11 Este 24 Este 0 -- -- 87
2020-03-31 21:00:00 8.5 15 Este 28 Este 0 -- -- 83
2020-03-31 20:00:00 9 18 Este 29 Este 0 -- -- 80
2020-03-31 19:00:00 9.6 14 Este 22 Este 0 -- -- 78
2020-03-31 18:00:00 9.5 12 Este 23 Este 0 -- -- 73
2020-03-31 17:00:00 9.4 17 Este 28 Este 0 -- -- 74
2020-03-31 16:00:00 7.9 13 Este 21 Este 0.4 -- -- 80
2020-03-31 15:00:00 7 11 Este 30 Este 0 -- -- 79
2020-03-31 14:00:00 7.1 22 Este 40 Este 0 -- -- 72
2020-03-31 13:00:00 7.2 18 Este 34 Este 0 -- -- 72
2020-03-31 12:00:00 4.6 21 Este 44 Nordeste 0 -- -- 75
2020-03-31 11:00:00 1.9 23 Este 44 Este 0 -- -- 81
2020-03-31 10:00:00 1.5 28 Este 40 Este 0 -- -- 80
2020-03-31 09:00:00 0.3 23 Nordeste 40 Este 0 -- -- 83
2020-03-31 08:00:00 0.3 22 Este 40 Este 0 -- -- 80
2020-03-31 07:00:00 0.4 20 Este 40 Este 0 -- -- 79
2020-03-31 06:00:00 0.6 19 Este 39 Este 0 -- -- 77
2020-03-31 05:00:00 0.8 19 Este 38 Este 0 -- -- 74
2020-03-31 04:00:00 1 17 Este 29 Nordeste 0 -- -- 71
2020-03-31 03:00:00 1 19 Este 36 Este 0 -- -- 70
2020-03-31 02:00:00 1.1 16 Este 34 Este 0 -- -- 71
2020-03-31 01:00:00 1.5 21 Este 35 Este 0 -- -- 68
2020-03-31 00:00:00 2.1 21 Este 40 Este 0 -- -- 66
2020-03-30 23:00:00 2.9 22 Este 38 Este 0 -- -- 60
2020-03-30 22:00:00 3.5 19 Este 35 Este 0 -- -- 56
2020-03-30 21:00:00 3.9 20 Este 36 Sudeste 0 -- -- 53
2020-03-30 20:00:00 4.4 19 Este 42 Este 0 -- -- 51
2020-03-30 19:00:00 4.8 23 Este 39 Este 0 -- -- 55
2020-03-30 18:00:00 4.7 24 Este 37 Este 0 -- -- 52
2020-03-30 17:00:00 4.7 23 Este 40 Este 0 -- -- 53
2020-03-30 16:00:00 4.2 22 Este 45 Este 0 -- -- 56
2020-03-30 15:00:00 4.3 24 Este 41 Este 0 -- -- 61
2020-03-30 14:00:00 3.9 29 Este 45 Este 0 -- -- 60
2020-03-30 13:00:00 3.6 27 Este 46 Nordeste 0 -- -- 62
2020-03-30 12:00:00 4.2 28 Este 55 Este 0 -- -- 65
2020-03-30 11:00:00 2.7 25 Este 47 Este 0 -- -- 68
2020-03-30 10:00:00 2.7 26 Este 46 Este 0 -- -- 69
2020-03-30 09:00:00 2.6 25 Este 44 Este 0 -- -- 74
2020-03-30 08:00:00 3.2 21 Este 39 Este 0 -- -- 79
2020-03-30 07:00:00 3.4 25 Este 43 Este 0 -- -- 78
2020-03-30 06:00:00 4.1 18 Este 45 Este 0 -- -- 79
2020-03-30 05:00:00 4.5 23 Este 41 Este 0 -- -- 76
2020-03-30 04:00:00 5.5 19 Este 40 Este 0 -- -- 79
2020-03-30 03:00:00 5.8 15 Este 32 Este 0 -- -- 82
2020-03-30 02:00:00 6.3 16 Este 30 Nordeste 0 -- -- 79
2020-03-30 01:00:00 7 26 Este 41 Nordeste 0 -- -- 75
2020-03-30 00:00:00 8 26 Nordeste 35 Nordeste 0 -- -- 73
2020-03-29 23:00:00 6.9 10 Nordeste 25 Nordeste 0 -- -- 78
2020-03-29 22:00:00 7.4 7 Nordeste 10 Nordeste 0 -- -- 80
2020-03-29 21:00:00 11.1 4 Nordeste 6 Nordeste 0 -- -- 65
2020-03-29 20:00:00 14.7 5 Nordeste 10 Nordeste 0 -- -- 48
2020-03-29 19:00:00 16 5 Nordeste 13 Este 0 -- -- 46
2020-03-29 18:00:00 16.6 4 Nordeste 15 Nordeste 0 -- -- 48
2020-03-29 17:00:00 15.8 4 Este 12 Este 0 -- -- 53
2020-03-29 16:00:00 15.9 4 Sur 21 Nordeste 0 -- -- 47
2020-03-29 15:00:00 15 5 Norte 17 Este 0 -- -- 52
2020-03-29 14:00:00 14.1 11 Nordeste 18 Nordeste 0 -- -- 50
2020-03-29 13:00:00 13.9 4 Este 12 Nordeste 0 -- -- 59
2020-03-29 12:00:00 12.1 2 Este 9 Este 0 -- -- 68
2020-03-29 11:00:00 8.2 7 Nordeste 12 Nordeste 0 -- -- 83
2020-03-29 10:00:00 4.1 2 Sur 10 Nordeste 0 -- -- 92
2020-03-29 09:00:00 -0.1 0 Calma 2 Nordeste 0 -- -- 96
2020-03-29 08:00:00 -0.7 2 Este 7 Nordeste 0 -- -- 93
2020-03-29 07:00:00 -0.4 3 Nordeste 5 Nordeste 0 -- -- 93
2020-03-29 06:00:00 -0.2 3 Nordeste 5 Nordeste 0 -- -- 95
2020-03-29 05:00:00 -0.2 0 Calma 5 Este 0 -- -- 94
2020-03-29 03:00:00 0.6 2 Nordeste 5 Nordeste 0 -- -- 92
2020-03-29 01:00:00 1.6 5 Nordeste 6 Nordeste 0 -- -- 89
2020-03-29 00:00:00 2.5 3 Nordeste 4 Nordeste 0 -- -- 85
2020-03-28 23:00:00 4.9 0 Calma 8 Nordeste 0 -- -- 79
2020-03-28 22:00:00 6.6 7 Nordeste 9 Nordeste 0 -- -- 69
2020-03-28 21:00:00 5.5 5 Nordeste 8 Nordeste 0 -- -- 81
2020-03-28 20:00:00 7.8 4 Nordeste 5 Nordeste 0 -- -- 70
2020-03-28 19:00:00 12.6 0 Calma 7 Sur 0 -- -- 54
2020-03-28 18:00:00 13.7 3 Sur 13 Sudoeste 0 -- -- 44
2020-03-28 17:00:00 14 5 Sur 17 Sudeste 0 -- -- 39
2020-03-28 16:00:00 14.3 10 Sudeste 24 Sudeste 0 -- -- 41
2020-03-28 15:00:00 13.7 8 Este 24 Nordeste 0 -- -- 43
2020-03-28 14:00:00 13 13 Este 27 Este 0 -- -- 54
2020-03-28 13:00:00 12 13 Nordeste 23 Este 0 -- -- 59
2020-03-28 12:00:00 10.6 14 Nordeste 23 Nordeste 0 -- -- 63
2020-03-28 11:00:00 8.8 11 Nordeste 20 Nordeste 0 -- -- 70
2020-03-28 10:00:00 6 17 Nordeste 28 Nordeste 0 -- -- 77
2020-03-28 09:00:00 3.2 20 Nordeste 26 Nordeste 0 -- -- 82
2020-03-28 08:00:00 -0.3 6 Nordeste 8 Nordeste 0 -- -- 95
2020-03-28 07:00:00 -2.9 2 Nordeste 3 Nordeste 0 -- -- 94
2020-03-28 06:00:00 -1.9 0 Calma 3 Sudeste 0 -- -- 94
2020-03-28 05:00:00 -2 2 Este 3 Nordeste 0 -- -- 94
2020-03-28 04:00:00 -1.8 2 Este 4 Nordeste 0 -- -- 94
2020-03-28 03:00:00 -1.3 0 Calma 5 Nordeste 0 -- -- 92
2020-03-28 02:00:00 -1.2 0 Calma 4 Nordeste 0 -- -- 92
2020-03-28 01:00:00 0.4 0 Calma 4 Este 0 -- -- 82
2020-03-28 00:00:00 2.2 4 Este 8 Este 0 -- -- 77
2020-03-27 23:00:00 1.6 5 Este 8 Este 0 -- -- 81
2020-03-27 22:00:00 2.8 3 Este 6 Este 0 -- -- 77
2020-03-27 21:00:00 2.6 6 Este 9 Este 0 -- -- 81
2020-03-27 20:00:00 5.5 5 Nordeste 13 Sudeste 0 -- -- 70
2020-03-27 19:00:00 10.3 7 Sudeste 21 Sudeste 0 -- -- 47
2020-03-27 18:00:00 11 10 Sudeste 22 Sudeste 0 -- -- 42
2020-03-27 17:00:00 11.1 13 Sudeste 26 Sudeste 0 -- -- 41
2020-03-27 16:00:00 10.8 12 Este 25 Sudeste 0 -- -- 40
2020-03-27 15:00:00 10.3 16 Este 31 Este 0 -- -- 47
2020-03-27 14:00:00 8.9 18 Este 38 Este 0 -- -- 48
2020-03-27 13:00:00 8 21 Este 39 Nordeste 0 -- -- 53
2020-03-27 12:00:00 6.8 23 Este 37 Nordeste 0 -- -- 55
2020-03-27 11:00:00 5.5 19 Este 37 Este 0 -- -- 59
2020-03-27 10:00:00 3.1 13 Este 35 Nordeste 0 -- -- 73
2020-03-27 09:00:00 1.7 23 Nordeste 33 Nordeste 0 -- -- 74
2020-03-27 08:00:00 0.3 19 Nordeste 31 Nordeste 0 -- -- 77
2020-03-27 07:00:00 0.2 10 Este 28 Este 0 -- -- 74
2020-03-27 06:00:00 1.2 16 Este 34 Este 0 -- -- 68
2020-03-27 05:00:00 1.7 14 Este 30 Este 0 -- -- 69
2020-03-27 04:00:00 2.2 14 Este 29 Este 0 -- -- 70
2020-03-27 03:00:00 3 19 Este 32 Este 0 -- -- 69
2020-03-27 02:00:00 3.6 17 Este 33 Este 0 -- -- 73
2020-03-27 01:00:00 4.2 17 Este 28 Este 0 -- -- 73
2020-03-27 00:00:00 5 14 Este 31 Este 0 -- -- 68
2020-03-26 23:00:00 6.5 14 Este 28 Este 0 -- -- 66
2020-03-26 22:00:00 7 6 Este 13 Este 0 -- -- 58
2020-03-26 21:00:00 6.4 3 Sudeste 13 Sudeste 0 -- -- 72
2020-03-26 20:00:00 8.4 4 Nordeste 10 Oeste 0 -- -- 68
2020-03-26 19:00:00 15.3 6 Oeste 17 Sudoeste 0 -- -- 39
2020-03-26 18:00:00 16.5 9 Oeste 18 Oeste 0 -- -- 37
2020-03-26 17:00:00 15.8 5 Noroeste 20 Oeste 0 -- -- 37
2020-03-26 16:00:00 15.4 9 Noroeste 17 Sudoeste 0 -- -- 38
2020-03-26 15:00:00 14.8 8 Oeste 18 Oeste 0 -- -- 45
2020-03-26 14:00:00 13.8 4 Nordeste 15 Oeste 0 -- -- 39
2020-03-26 13:00:00 12.9 6 Sudoeste 12 Noroeste 0 -- -- 53
2020-03-26 12:00:00 11.8 3 Sudoeste 8 Sudoeste 0 -- -- 50
2020-03-26 11:00:00 9.6 5 Sur 14 Sudoeste 0 -- -- 55
2020-03-26 10:00:00 7.7 9 Sudeste 15 Sudeste 0 -- -- 61
2020-03-26 09:00:00 4.2 5 Sur 9 Sur 0 -- -- 72
2020-03-26 08:00:00 0 2 Sudeste 5 Nordeste 0 -- -- 94
2020-03-26 07:00:00 -1.3 3 Nordeste 5 Nordeste 0 -- -- 90
2020-03-26 06:00:00 -0.8 2 Noroeste 5 Nordeste 0 -- -- 87
2020-03-26 05:00:00 -0.6 3 Nordeste 5 Nordeste 0 -- -- 89
2020-03-26 04:00:00 0.8 3 Nordeste 5 Nordeste 0 -- -- 84
2020-03-26 03:00:00 2.8 0 Calma 9 Sudoeste 0 -- -- 73
2020-03-26 02:00:00 6.6 6 Nordeste 16 Este 0 -- -- 47
2020-03-26 01:00:00 7.1 7 Nordeste 12 Norte 0 -- -- 56
2020-03-26 00:00:00 9.8 7 Norte 13 Norte 0 -- -- 46
2020-03-25 23:00:00 11.3 4 Norte 14 Norte 0 -- -- 51
2020-03-25 22:00:00 13.1 9 Noroeste 20 Noroeste 0 -- -- 60
2020-03-25 21:00:00 13.7 6 Oeste 20 Noroeste 0 -- -- 59
2020-03-25 20:00:00 15.1 9 Noroeste 26 Oeste 0 -- -- 51
2020-03-25 19:00:00 16.8 12 Noroeste 33 Noroeste 0 -- -- 45
2020-03-25 18:00:00 17.8 15 Noroeste 32 Noroeste 0 -- -- 45
2020-03-25 17:00:00 17.8 18 Noroeste 32 Oeste 0 -- -- 47
2020-03-25 16:00:00 17.1 16 Oeste 28 Oeste 0 -- -- 53
2020-03-25 15:00:00 16.6 15 Oeste 28 Noroeste 0 -- -- 47
2020-03-25 14:00:00 17 14 Oeste 27 Oeste 0 -- -- 50
2020-03-25 13:00:00 15.1 14 Noroeste 27 Noroeste 0 -- -- 59
2020-03-25 12:00:00 14.1 10 Noroeste 21 Noroeste 0 -- -- 61
2020-03-25 11:00:00 12.7 4 Oeste 9 Oeste 0 -- -- 68
2020-03-25 10:00:00 10.5 3 Sudoeste 6 Sudoeste 0 -- -- 79
2020-03-25 09:00:00 7.4 0 Calma 3 Este 0 -- -- 89
2020-03-25 08:00:00 4.1 0 Calma 4 Sur 0 -- -- 94
2020-03-25 07:00:00 4.5 0 Calma 3 Sudoeste 0 -- -- 95
2020-03-25 06:00:00 3.9 0 Calma 2 Oeste 0 -- -- 98
2020-03-25 05:00:00 2.2 0 Calma 8 Nordeste 0 -- -- 96
2020-03-25 04:00:00 2.3 3 Nordeste 9 Nordeste 0 -- -- 94
2020-03-25 03:00:00 3.3 0 Calma 10 Nordeste 0 -- -- 87
2020-03-25 02:00:00 5.5 8 Nordeste 13 Este 0 -- -- 83
2020-03-25 01:00:00 7.4 8 Este 14 Este 0 -- -- 77
2020-03-25 00:00:00 5.7 4 Este 12 Este 0 -- -- 82
2020-03-24 23:00:00 8.9 9 Este 14 Este 0 -- -- 72
2020-03-24 22:00:00 9.5 10 Este 18 Este 0 -- -- 72
2020-03-24 21:00:00 9.1 11 Nordeste 15 Este 0 -- -- 76
2020-03-24 20:00:00 10.5 9 Nordeste 20 Este 0 -- -- 72
2020-03-24 19:00:00 13 13 Este 22 Este 0 -- -- 60
2020-03-24 18:00:00 14.8 12 Este 23 Este 0 -- -- 54
2020-03-24 17:00:00 14.3 16 Este 27 Este 0 -- -- 58
2020-03-24 16:00:00 14.3 15 Este 27 Nordeste 0 -- -- 59
2020-03-24 15:00:00 14.7 17 Nordeste 31 Este 0 -- -- 56
2020-03-24 14:00:00 14.2 16 Este 32 Este 0 -- -- 60
2020-03-24 13:00:00 13.3 18 Este 32 Este 0 -- -- 67
2020-03-24 12:00:00 11.9 15 Este 24 Nordeste 0 -- -- 82
2020-03-24 11:00:00 9.8 15 Nordeste 25 Este 0 -- -- 89
2020-03-24 10:00:00 7.5 14 Nordeste 26 Nordeste 0 -- -- 98
2020-03-24 09:00:00 4.9 20 Nordeste 32 Este 0 -- -- 100
2020-03-24 08:00:00 3.6 19 Nordeste 28 Nordeste 0 -- -- 100
2020-03-24 07:00:00 3.9 20 Nordeste 37 Nordeste 0 -- -- 98
2020-03-24 06:00:00 5.8 14 Nordeste 18 Este 0 -- -- 88
2020-03-24 05:00:00 5.9 10 Este 18 Este 0 -- -- 88
2020-03-24 04:00:00 6.2 11 Este 19 Este 0 -- -- 87
2020-03-24 03:00:00 7.4 7 Este 21 Este 0 -- -- 81
2020-03-24 02:00:00 8.2 13 Este 21 Este 0 -- -- 79
2020-03-24 01:00:00 7.8 12 Este 19 Este 0 -- -- 80
2020-03-24 00:00:00 7.6 10 Este 16 Este 0 -- -- 82
2020-03-23 23:00:00 7.6 3 Este 20 Este 0 -- -- 87
2020-03-23 22:00:00 8.9 14 Nordeste 19 Este 0 -- -- 80
2020-03-23 21:00:00 6.5 8 Nordeste 13 Nordeste 0 -- -- 89
2020-03-23 20:00:00 9 9 Este 15 Este 0 -- -- 80
2020-03-23 19:00:00 9.9 5 Sudeste 31 Este 0.2 -- -- 82
2020-03-23 18:00:00 11.4 10 Sudeste 31 Sur 0 -- -- 76
2020-03-23 17:00:00 14 12 Nordeste 28 Este 0 -- -- 59
2020-03-23 16:00:00 14.1 16 Este 31 Nordeste 0 -- -- 63
2020-03-23 15:00:00 13.7 19 Este 30 Este 0 -- -- 63
2020-03-23 14:00:00 12.5 17 Nordeste 29 Este 0 -- -- 71
2020-03-23 13:00:00 11.8 17 Este 28 Este 0 -- -- 75
2020-03-23 12:00:00 10.4 16 Este 23 Este 0 -- -- 85
2020-03-23 11:00:00 8.8 13 Nordeste 21 Este 0 -- -- 93
2020-03-23 10:00:00 6.3 11 Este 32 Nordeste 0 -- -- 100
2020-03-23 09:00:00 4.6 23 Nordeste 29 Nordeste 0 -- -- 100
2020-03-23 08:00:00 4.3 19 Nordeste 28 Nordeste 0 -- -- 100
2020-03-23 07:00:00 4.6 21 Nordeste 30 Nordeste 0 -- -- 100
2020-03-23 06:00:00 4.5 23 Nordeste 30 Nordeste 0 -- -- 100
2020-03-23 05:00:00 5 23 Nordeste 31 Nordeste 0 -- -- 99
2020-03-23 04:00:00 6 22 Nordeste 30 Nordeste 0 -- -- 97
2020-03-23 03:00:00 7.3 15 Nordeste 21 Nordeste 0 -- -- 95
2020-03-23 02:00:00 8 14 Nordeste 18 Nordeste 0 -- -- 93
2020-03-23 01:00:00 8.4 12 Nordeste 22 Nordeste 0 -- -- 91
2020-03-23 00:00:00 7 3 Este 4 Este 0 -- -- 95
2020-03-22 23:00:00 6.9 0 Calma 4 Nordeste 0 -- -- 96
2020-03-22 22:00:00 5.5 2 Este 6 Este 0 -- -- 95
2020-03-22 21:00:00 5.8 3 Nordeste 5 Nordeste 0 -- -- 91
2020-03-22 20:00:00 9 4 Nordeste 8 Sudeste 0 -- -- 84
2020-03-22 19:00:00 11.1 10 Sudeste 26 Este 0 -- -- 72
2020-03-22 18:00:00 12.7 10 Este 19 Este 0.2 -- -- 73
2020-03-22 17:00:00 13.4 10 Nordeste 22 Nordeste 0 -- -- 67
2020-03-22 16:00:00 13.3 7 Este 18 Este 0 -- -- 69
2020-03-22 15:00:00 12 6 Nordeste 16 Este 0 -- -- 80
2020-03-22 14:00:00 11 6 Nordeste 13 Nordeste 0 -- -- 78
2020-03-22 13:00:00 9.5 6 Nordeste 10 Este 0 -- -- 81
2020-03-22 12:00:00 9.4 4 Este 14 Sudeste 0 -- -- 83
2020-03-22 11:00:00 8.5 6 Este 11 Este 0 -- -- 87
2020-03-22 10:00:00 7.5 7 Este 14 Este 0 -- -- 91
2020-03-22 09:00:00 6.7 6 Este 11 Este 0 -- -- 97
2020-03-22 08:00:00 5.9 6 Nordeste 13 Este 0 -- -- 99
2020-03-22 07:00:00 6.3 11 Nordeste 17 Este 0 -- -- 100
2020-03-22 06:00:00 6.2 5 Nordeste 13 Nordeste 0 -- -- 100
2020-03-22 05:00:00 5.4 0 Calma 4 Norte 0 -- -- 100
2020-03-22 04:00:00 4.6 0 Calma 5 Este 0 -- -- 100
2020-03-22 03:00:00 4.9 2 Nordeste 12 Nordeste 0 -- -- 98
2020-03-22 02:00:00 5.7 9 Nordeste 13 Nordeste 0.2 -- -- 98
2020-03-22 01:00:00 6.5 4 Nordeste 5 Norte 0 -- -- 98
2020-03-22 00:00:00 6.6 0 Calma 7 Norte 0 -- -- 97
2020-03-21 23:00:00 7.1 2 Norte 6 Norte 0 -- -- 97
2020-03-21 22:00:00 7.1 3 Norte 5 Norte 0 -- -- 96
2020-03-21 21:00:00 7.2 2 Noroeste 5 Noroeste 0 -- -- 95
2020-03-21 20:00:00 7.5 3 Noroeste 9 Noroeste 0 -- -- 93
2020-03-21 19:00:00 8.2 3 Noroeste 6 Noroeste 0.2 -- -- 91
2020-03-21 18:00:00 8.4 3 Noroeste 6 Oeste 0.6 -- -- 87
2020-03-21 17:00:00 9 3 Oeste 6 Oeste 0 -- -- 83
2020-03-21 16:00:00 9.1 4 Noroeste 8 Norte 0 -- -- 82
2020-03-21 15:00:00 8.5 6 Sudoeste 13 Sudoeste 0 -- -- 83
2020-03-21 14:00:00 7.6 5 Sudoeste 12 Sudoeste 0.8 -- -- 92
2020-03-21 13:00:00 7.5 8 Sudoeste 15 Sudoeste 0 -- -- 93
2020-03-21 12:00:00 7.6 8 Sudoeste 16 Sudoeste 0 -- -- 93
2020-03-21 11:00:00 7.5 3 Sur 7 Sudeste 0.4 -- -- 97
2020-03-21 10:00:00 7 3 Sudoeste 13 Oeste 1.4 -- -- 97
2020-03-21 09:00:00 7 5 Oeste 14 Oeste 0.4 -- -- 96
2020-03-21 08:00:00 7.3 6 Noroeste 13 Oeste 0 -- -- 97
2020-03-21 07:00:00 7.8 3 Oeste 6 Noroeste 0 -- -- 96
2020-03-21 06:00:00 8.4 3 Oeste 10 Sur 0 -- -- 96
2020-03-21 05:00:00 8.3 3 Sudoeste 16 Sur 0 -- -- 93
2020-03-21 04:00:00 8.7 10 Sudeste 22 Este 0 -- -- 88
2020-03-21 03:00:00 8.5 11 Sudeste 21 Sudeste 0 -- -- 89
2020-03-21 02:00:00 8.3 11 Este 24 Este 0 -- -- 90
2020-03-21 01:00:00 8 4 Este 11 Este 0.2 -- -- 92
2020-03-21 00:00:00 8.7 5 Este 14 Este 0.2 -- -- 93
2020-03-20 23:00:00 8.8 7 Este 11 Este 0.6 -- -- 93
2020-03-20 22:00:00 9.3 5 Sudeste 18 Nordeste 0 -- -- 90
2020-03-20 21:00:00 9.3 12 Este 18 Este 0 -- -- 91
2020-03-20 20:00:00 9.2 4 Este 7 Este 0 -- -- 92
2020-03-20 19:00:00 10.4 4 Este 5 Este 0 -- -- 93
2020-03-20 18:00:00 10.3 3 Sudeste 9 Sudeste 0 -- -- 93
2020-03-20 17:00:00 9.8 4 Sudeste 10 Este 0.6 -- -- 94
2020-03-20 16:00:00 8.9 7 Este 19 Sudoeste 1.4 -- -- 96
2020-03-20 15:00:00 9.2 11 Sudoeste 24 Sudoeste 0.2 -- -- 91
2020-03-20 14:00:00 9.6 7 Oeste 14 Oeste 2.2 -- -- 95
2020-03-20 13:00:00 10.3 6 Oeste 14 Oeste 0.4 -- -- 92
2020-03-20 12:00:00 11.1 8 Oeste 17 Sudoeste 0 -- -- 85
2020-03-20 11:00:00 12.7 6 Sudeste 14 Sudeste 0 -- -- 72
2020-03-20 10:00:00 11.6 6 Sudeste 13 Sudeste 0 -- -- 78
2020-03-20 09:00:00 9.5 5 Este 10 Este 0 -- -- 87
2020-03-20 08:00:00 8.6 3 Este 7 Este 0 -- -- 94
2020-03-20 07:00:00 8.4 7 Este 10 Este 0 -- -- 96
2020-03-20 06:00:00 8.3 5 Este 8 Este 0 -- -- 96
2020-03-20 05:00:00 8.4 3 Sudeste 10 Sur 0 -- -- 96
2020-03-20 04:00:00 8.4 0 Calma 4 Nordeste 0 -- -- 97
2020-03-20 03:00:00 8.3 2 Nordeste 4 Este 0 -- -- 95
2020-03-20 02:00:00 8.8 2 Nordeste 4 Nordeste 0 -- -- 95
2020-03-20 01:00:00 8.6 2 Nordeste 3 Este 0 -- -- 92
2020-03-20 00:00:00 10.1 0 Calma 7 Sur 0 -- -- 88
2020-03-19 23:00:00 10.5 2 Sudeste 8 Este 0 -- -- 85
2020-03-19 22:00:00 10.6 7 Este 10 Este 0 -- -- 85
2020-03-19 21:00:00 10.8 2 Este 6 Este 0 -- -- 90
2020-03-19 20:00:00 11.9 0 Calma 11 Sudeste 0 -- -- 82
2020-03-19 19:00:00 13.8 4 Sur 14 Sudeste 0 -- -- 71
2020-03-19 18:00:00 14.5 5 Sudeste 14 Sudeste 0 -- -- 68
2020-03-19 17:00:00 14.5 7 Sudeste 19 Sudeste 0 -- -- 73
2020-03-19 16:00:00 14.6 9 Sudeste 14 Sudeste 0 -- -- 73
2020-03-19 15:00:00 14.1 8 Este 13 Este 0 -- -- 81
2020-03-19 14:00:00 13.6 9 Este 17 Nordeste 0 -- -- 80
2020-03-19 13:00:00 12.7 13 Nordeste 18 Nordeste 0 -- -- 83
2020-03-19 12:00:00 12.2 12 Nordeste 15 Nordeste 0 -- -- 82
2020-03-19 11:00:00 11.6 9 Este 17 Este 0 -- -- 85
2020-03-19 10:00:00 9.3 8 Nordeste 16 Este 0 -- -- 95
2020-03-19 09:00:00 7.5 7 Nordeste 13 Nordeste 0 -- -- 98
2020-03-19 08:00:00 6.5 4 Nordeste 7 Nordeste 0 -- -- 96
2020-03-19 07:00:00 7.9 5 Nordeste 15 Nordeste 0 -- -- 96
2020-03-19 06:00:00 8.4 12 Nordeste 21 Nordeste 0 -- -- 97
2020-03-19 05:00:00 8.3 5 Nordeste 10 Nordeste 0 -- -- 96
2020-03-19 04:00:00 6.4 0 Calma 5 Nordeste 0 -- -- 92
2020-03-19 03:00:00 6.7 0 Calma 4 Nordeste 0 -- -- 92
2020-03-19 02:00:00 7.5 2 Este 5 Sudeste 0 -- -- 91
2020-03-19 01:00:00 9.7 3 Sudeste 7 Este 0 -- -- 83
2020-03-19 00:00:00 11.5 2 Sur 14 Este 0 -- -- 77
2020-03-18 23:00:00 11.6 8 Este 14 Este 0 -- -- 83
2020-03-18 22:00:00 11.6 5 Este 12 Este 0 -- -- 84
2020-03-18 21:00:00 12.7 10 Este 18 Este 0 -- -- 81
2020-03-18 20:00:00 12.4 8 Este 12 Este 0 -- -- 82
2020-03-18 19:00:00 14.4 5 Este 15 Este 0 -- -- 75
2020-03-18 18:00:00 15.6 10 Este 20 Nordeste 0 -- -- 68
2020-03-18 17:00:00 16.1 11 Este 25 Sudeste 0 -- -- 70
2020-03-18 16:00:00 15.8 14 Este 24 Este 0 -- -- 76
2020-03-18 15:00:00 14.3 15 Nordeste 30 Este 0 -- -- 81
2020-03-18 14:00:00 13.1 19 Nordeste 27 Este 0 -- -- 85
2020-03-18 13:00:00 12.1 21 Nordeste 33 Este 0 -- -- 87
2020-03-18 12:00:00 11.1 16 Nordeste 24 Nordeste 0 -- -- 91
2020-03-18 11:00:00 8.9 14 Este 20 Nordeste 0 -- -- 97
2020-03-18 10:00:00 7.5 13 Nordeste 22 Nordeste 0 -- -- 100
2020-03-18 09:00:00 6.5 10 Nordeste 21 Este 0 -- -- 100
2020-03-18 08:00:00 6 18 Nordeste 28 Nordeste 0 -- -- 100
2020-03-18 07:00:00 5.9 22 Nordeste 36 Nordeste 0 -- -- 100
2020-03-18 06:00:00 6 24 Nordeste 31 Nordeste 0 -- -- 100
2020-03-18 05:00:00 6.4 21 Nordeste 35 Nordeste 0 -- -- 100
2020-03-18 04:00:00 6.8 23 Nordeste 33 Nordeste 0 -- -- 100
2020-03-18 03:00:00 6.8 23 Nordeste 32 Nordeste 0 -- -- 100
2020-03-18 02:00:00 6.7 14 Nordeste 23 Nordeste 0 -- -- 98
2020-03-18 01:00:00 8.4 18 Este 30 Este 0 -- -- 95
2020-03-18 00:00:00 8.4 14 Nordeste 26 Nordeste 0 -- -- 94
2020-03-17 23:00:00 9.6 22 Este 36 Este 0 -- -- 92
2020-03-17 22:00:00 9.8 21 Nordeste 32 Este 0 -- -- 91
2020-03-17 21:00:00 10.7 21 Nordeste 36 Este 0 -- -- 89
2020-03-17 20:00:00 11.4 23 Nordeste 33 Nordeste 0 -- -- 88
2020-03-17 19:00:00 12.3 16 Nordeste 28 Este 0 -- -- 84
2020-03-17 18:00:00 13.6 17 Nordeste 27 Este 0 -- -- 78
2020-03-17 17:00:00 12.9 17 Este 31 Nordeste 0 -- -- 75
2020-03-17 16:00:00 13.3 17 Este 30 Este 0 -- -- 79
2020-03-17 15:00:00 12.1 18 Este 33 Este 0 -- -- 79
2020-03-17 14:00:00 11.2 19 Este 30 Este 0 -- -- 81
2020-03-17 13:00:00 10 16 Este 34 Este 0 -- -- 87
2020-03-17 12:00:00 8.9 21 Este 38 Este 0 -- -- 88
2020-03-17 11:00:00 7.4 19 Este 38 Este 0 -- -- 94
2020-03-17 10:00:00 6.2 21 Nordeste 34 Nordeste 0 -- -- 97
2020-03-17 09:00:00 5.3 19 Nordeste 38 Nordeste 0.2 -- -- 98
2020-03-17 08:00:00 5 31 Nordeste 44 Nordeste 0 -- -- 98
2020-03-17 07:00:00 5 22 Nordeste 36 Este 0 -- -- 98
2020-03-17 06:00:00 4.8 22 Nordeste 35 Nordeste 0 -- -- 98
2020-03-17 05:00:00 4.6 20 Nordeste 33 Nordeste 0 -- -- 98
2020-03-17 04:00:00 4.7 20 Nordeste 34 Nordeste 0.2 -- -- 98
2020-03-17 03:00:00 4.7 23 Nordeste 45 Nordeste 0.4 -- -- 96
2020-03-17 02:00:00 4.6 29 Este 54 Este 0.4 -- -- 93
2020-03-17 01:00:00 5 30 Nordeste 50 Este 0.2 -- -- 91
2020-03-17 00:00:00 4.9 31 Nordeste 51 Nordeste 0.2 -- -- 88
2020-03-16 23:00:00 4.6 23 Nordeste 34 Nordeste 0.4 -- -- 92
2020-03-16 22:00:00 5 17 Nordeste 35 Nordeste 0 -- -- 91
2020-03-16 21:00:00 5.2 19 Nordeste 42 Nordeste 0.4 -- -- 89
2020-03-16 20:00:00 5.6 21 Nordeste 36 Nordeste 0.6 -- -- 88
2020-03-16 19:00:00 5.8 18 Nordeste 41 Este 0 -- -- 85
2020-03-16 18:00:00 6.6 16 Este 27 Este 0 -- -- 82
2020-03-16 17:00:00 7 18 Este 32 Nordeste 0 -- -- 77
2020-03-16 16:00:00 7.7 19 Nordeste 36 Nordeste 0.2 -- -- 68
2020-03-16 15:00:00 6.1 22 Nordeste 50 Nordeste 0.2 -- -- 74
2020-03-16 14:00:00 5.7 15 Nordeste 36 Norte 0.2 -- -- 83
2020-03-16 13:00:00 3.3 17 Nordeste 45 Nordeste 1.6 -- -- 93
2020-03-16 12:00:00 4.1 20 Nordeste 39 Nordeste 0.2 -- -- 83
2020-03-16 11:00:00 4.9 13 Norte 26 Nordeste 0 -- -- 84
2020-03-16 10:00:00 3.4 6 Norte 17 Norte 1 -- -- 94
2020-03-16 09:00:00 1.8 5 Norte 15 Noroeste 1.4 -- -- 99
2020-03-16 08:00:00 0.8 4 Noroeste 14 Noroeste 0.4 -- -- 99
2020-03-16 07:00:00 0.8 6 Noroeste 16 Norte 0.6 -- -- 98
2020-03-16 06:00:00 0.9 8 Noroeste 17 Noroeste 0.4 -- -- 97
2020-03-16 05:00:00 1.4 8 Noroeste 25 Noroeste 0.6 -- -- 97
2020-03-16 04:00:00 1.6 10 Noroeste 19 Noroeste 0.4 -- -- 95
2020-03-16 03:00:00 1.9 6 Norte 19 Noroeste 0 -- -- 92
2020-03-16 02:00:00 2.2 8 Noroeste 17 Noroeste 0.4 -- -- 91
2020-03-16 01:00:00 2.4 8 Noroeste 23 Oeste 0 -- -- 90
2020-03-16 00:00:00 2.8 12 Noroeste 25 Noroeste 0 -- -- 86
2020-03-15 23:00:00 3 12 Noroeste 39 Noroeste 0 -- -- 85
2020-03-15 22:00:00 3.3 15 Noroeste 27 Oeste 0 -- -- 90
2020-03-15 21:00:00 3.8 12 Noroeste 42 Noroeste 0 -- -- 91
2020-03-15 20:00:00 5.9 20 Noroeste 51 Noroeste 0 -- -- 86
2020-03-15 19:00:00 11.2 16 Oeste 35 Oeste 0 -- -- 58
2020-03-15 18:00:00 12.9 17 Oeste 37 Noroeste 0 -- -- 53
2020-03-15 17:00:00 12.3 17 Noroeste 34 Oeste 0 -- -- 60
2020-03-15 16:00:00 13.7 20 Oeste 37 Noroeste 0 -- -- 65
2020-03-15 15:00:00 13.6 24 Oeste 40 Oeste 0 -- -- 67
2020-03-15 14:00:00 15.9 21 Oeste 39 Oeste 0 -- -- 53
2020-03-15 13:00:00 15.5 19 Sudoeste 30 Oeste 0 -- -- 50
2020-03-15 12:00:00 14.4 12 Noroeste 30 Oeste 0 -- -- 56
2020-03-15 11:00:00 13.2 5 Sur 9 Sur 0 -- -- 61
2020-03-15 10:00:00 8.7 4 Sudeste 7 Sudeste 0 -- -- 69
2020-03-15 09:00:00 4.5 3 Sudeste 5 Sudeste 0 -- -- 82
2020-03-15 08:00:00 -0.5 2 Sudeste 6 Sudeste 0 -- -- 95
2020-03-15 07:00:00 -1.2 2 Sudeste 7 Sudeste 0 -- -- 92
2020-03-15 06:00:00 -0.5 2 Sudeste 5 Sudeste 0 -- -- 91
2020-03-15 05:00:00 -0.1 2 Este 4 Sudeste 0 -- -- 92
2020-03-15 04:00:00 0.2 2 Este 4 Sudeste 0 -- -- 92
2020-03-15 03:00:00 1.4 2 Sudeste 9 Sudeste 0 -- -- 86
2020-03-15 02:00:00 1.7 2 Este 5 Sudeste 0 -- -- 88
2020-03-15 01:00:00 2.3 3 Este -- -- 0 -- -- 87
2020-03-15 00:00:00 2.1 2 Este -- -- 0 -- -- 90
2020-03-14 23:00:00 2.9 2 Nordeste 4 Nordeste 0 -- -- 90
2020-03-14 22:00:00 5.7 3 Sudeste 5 Sudeste 0 -- -- 81
2020-03-14 21:00:00 5.9 4 Nordeste 8 Nordeste 0 -- -- 85
2020-03-14 20:00:00 8.8 4 Nordeste 5 Nordeste 0 -- -- 72
2020-03-14 19:00:00 18 3 Oeste 9 Oeste 0 -- -- 35
2020-03-14 18:00:00 18.7 3 Oeste 8 Sudoeste 0 -- -- 33
2020-03-14 17:00:00 18.3 5 Sudoeste 15 Sudoeste 0 -- -- 36
2020-03-14 16:00:00 17.2 7 Sudoeste 17 Sudoeste 0 -- -- 39
2020-03-14 15:00:00 16.9 5 Sudeste 17 Sur 0 -- -- 44
2020-03-14 14:00:00 15.7 9 Sudeste 18 Sudeste 0 -- -- 48
2020-03-14 13:00:00 14.3 5 Este 16 Sudeste 0 -- -- 62
2020-03-14 12:00:00 11.9 10 Nordeste 20 Nordeste 0 -- -- 71
2020-03-14 11:00:00 10.7 11 Nordeste 15 Nordeste 0 -- -- 80
2020-03-14 10:00:00 9.1 0 Calma 6 Sudeste 0 -- -- 85
2020-03-14 09:00:00 3.8 0 Calma 2 Sudoeste 0 -- -- 100
2020-03-14 08:00:00 0.2 0 Calma 4 Nordeste 0 -- -- 99
2020-03-14 07:00:00 0.8 4 Nordeste 7 Nordeste 0 -- -- 98
2020-03-14 06:00:00 1.5 7 Nordeste 9 Nordeste 0 -- -- 99
2020-03-14 05:00:00 1.9 4 Nordeste 7 Nordeste 0 -- -- 98
2020-03-14 04:00:00 2.7 5 Nordeste 8 Nordeste 0 -- -- 97
2020-03-14 03:00:00 4.1 5 Nordeste 12 Este 0 -- -- 94
2020-03-14 02:00:00 4.8 6 Este 15 Nordeste 0 -- -- 95
2020-03-14 01:00:00 4.7 6 Nordeste 8 Nordeste 0 -- -- 96
2020-03-14 00:00:00 6.3 2 Este 9 Nordeste 0 -- -- 87
2020-03-13 23:00:00 7.7 9 Nordeste 17 Este 0 -- -- 88
2020-03-13 22:00:00 9 11 Este 16 Este 0 -- -- 84
2020-03-13 21:00:00 9.8 8 Este 15 Este 0 -- -- 83
2020-03-13 20:00:00 11 9 Este 14 Este 0 -- -- 79
2020-03-13 19:00:00 13.2 10 Nordeste 21 Nordeste 0 -- -- 73
2020-03-13 18:00:00 14.3 12 Nordeste 24 Nordeste 0 -- -- 69
2020-03-13 17:00:00 14.3 15 Nordeste 24 Nordeste 0 -- -- 70
2020-03-13 16:00:00 14.4 15 Nordeste 24 Este 0 -- -- 70
2020-03-13 15:00:00 13.8 15 Nordeste 28 Nordeste 0 -- -- 74
2020-03-13 14:00:00 13.1 15 Nordeste 24 Nordeste 0 -- -- 79
2020-03-13 13:00:00 11.7 12 Nordeste 22 Este 0 -- -- 79
2020-03-13 12:00:00 9.3 17 Este 24 Este 0 -- -- 86
2020-03-13 11:00:00 8.6 14 Este 26 Este 0 -- -- 88
2020-03-13 10:00:00 7.7 15 Este 24 Este 0 -- -- 92
2020-03-13 09:00:00 6.8 18 Este 31 Este 0 -- -- 94
2020-03-13 08:00:00 6.6 16 Este 30 Este 0 -- -- 94
2020-03-13 07:00:00 6.3 15 Este 27 Este 0 -- -- 95
2020-03-13 06:00:00 6.3 14 Este 29 Este 0 -- -- 95
2020-03-13 05:00:00 6.7 11 Este 26 Este 0 -- -- 94
2020-03-13 04:00:00 7.5 11 Este 21 Este 0 -- -- 96
2020-03-13 03:00:00 7 10 Este 31 Nordeste 0 -- -- 96
2020-03-13 02:00:00 7.6 21 Nordeste 32 Nordeste 0 -- -- 96
2020-03-13 01:00:00 8.6 18 Este 37 Nordeste 0 -- -- 93
2020-03-13 00:00:00 9.4 26 Nordeste 38 Nordeste 0 -- -- 92
2020-03-12 23:00:00 11.3 19 Nordeste 26 Nordeste 0 -- -- 87
2020-03-12 22:00:00 13.5 3 Noroeste 6 Norte 0 -- -- 77
2020-03-12 21:00:00 14.7 3 Norte 9 Norte 0 -- -- 73
2020-03-12 20:00:00 16.2 6 Norte 10 Norte 0 -- -- 66
2020-03-12 19:00:00 18 4 Noroeste 9 Noroeste 0 -- -- 63
2020-03-12 18:00:00 19.1 3 Oeste 9 Norte 0 -- -- 58
2020-03-12 17:00:00 19.6 7 Noroeste 17 Noroeste 0 -- -- 55
2020-03-12 16:00:00 20.4 9 Noroeste 18 Noroeste 0 -- -- 54
2020-03-12 15:00:00 21 6 Noroeste 16 Norte 0 -- -- 55
2020-03-12 14:00:00 20 6 Noroeste 13 Oeste 0 -- -- 57
2020-03-12 13:00:00 19.8 2 Nordeste 5 Este 0 -- -- 59
2020-03-12 12:00:00 18.9 0 Calma 7 Sudeste 0 -- -- 58
2020-03-12 11:00:00 16.1 2 Sudoeste 9 Sudeste 0 -- -- 72
2020-03-12 10:00:00 11.7 6 Sudeste 8 Sudeste 0 -- -- 84
2020-03-12 09:00:00 9.1 2 Sudeste 5 Este 0 -- -- 94
2020-03-12 08:00:00 7.5 2 Sudeste 4 Sudeste 0 -- -- 96
2020-03-12 07:00:00 7.1 2 Este 4 Este 0 -- -- 95
2020-03-12 06:00:00 8.3 2 Este 5 Nordeste 0 -- -- 91
2020-03-12 05:00:00 8.7 0 Calma 3 Sudeste 0 -- -- 94
2020-03-12 04:00:00 8.2 2 Sudeste 5 Sudeste 0 -- -- 94
2020-03-12 03:00:00 8.9 3 Este 4 Este 0 -- -- 95
2020-03-12 02:00:00 8.6 2 Este 3 Nordeste 0 -- -- 94
2020-03-12 01:00:00 8.4 3 Nordeste 4 Nordeste 0 -- -- 94
2020-03-12 00:00:00 9.5 3 Nordeste 5 Nordeste 0 -- -- 91
2020-03-11 23:00:00 10.5 3 Nordeste 4 Nordeste 0 -- -- 88
2020-03-11 22:00:00 12.2 3 Nordeste 6 Nordeste 0 -- -- 84
2020-03-11 21:00:00 13 2 Este 5 Nordeste 0 -- -- 82
2020-03-11 20:00:00 14.5 -- -- -- -- 0 -- -- 80
2020-03-11 19:00:00 18.6 3 Norte 6 Noroeste 0 -- -- 62
2020-03-11 18:00:00 21.1 4 Noroeste 15 Noroeste 0 -- -- 46
2020-03-11 17:00:00 23.2 8 Noroeste 22 Oeste 0 -- -- 41
2020-03-11 16:00:00 22.6 13 Oeste 21 Oeste 0 -- -- 41
2020-03-11 15:00:00 22.6 13 Oeste 23 Oeste 0 -- -- 38
2020-03-11 14:00:00 21.7 8 Oeste 15 Sudoeste 0 -- -- 48
2020-03-11 13:00:00 19.7 8 Sur 11 Sur 0 -- -- 59
2020-03-11 12:00:00 18.1 5 Sur 10 Sur 0 -- -- 57
2020-03-11 11:00:00 15.8 3 Sudeste 7 Sudeste 0 -- -- 69
2020-03-11 10:00:00 12.3 3 Sudeste 5 Sudeste 0 -- -- 78
2020-03-11 09:00:00 7.5 3 Sudeste 5 Sudeste 0 -- -- 93
2020-03-11 08:00:00 3.2 3 Este -- -- 0 -- -- 99
2020-03-11 07:00:00 2.9 2 Nordeste 3 Nordeste 0 -- -- 98
2020-03-11 06:00:00 3.5 3 Nordeste 4 Nordeste 0 -- -- 98
2020-03-11 05:00:00 3.4 0 Calma -- -- 0 -- -- 97
2020-03-11 04:00:00 4 3 Nordeste 4 Nordeste 0 -- -- 97
2020-03-11 03:00:00 4 2 Este 4 Este 0 -- -- 96
2020-03-11 02:00:00 4.4 3 Nordeste 4 Nordeste 0 -- -- 95
2020-03-11 01:00:00 4.7 3 Nordeste 4 Nordeste 0 -- -- 94
2020-03-11 00:00:00 5.6 2 Nordeste 3 Nordeste 0 -- -- 92
2020-03-10 23:00:00 7 0 Calma 5 Noroeste 0 -- -- 85
2020-03-10 22:00:00 7.5 2 Noroeste 5 Noroeste 0 -- -- 86
2020-03-10 21:00:00 9.7 2 Noroeste 8 Norte 0 -- -- 79
2020-03-10 20:00:00 14.8 5 Norte 10 Noroeste 0 -- -- 59
2020-03-10 19:00:00 18.7 8 Oeste 22 Oeste 0 -- -- 51
2020-03-10 18:00:00 20 10 Oeste 23 Oeste 0 -- -- 45
2020-03-10 17:00:00 20.2 12 Oeste 21 Oeste 0 -- -- 47
2020-03-10 16:00:00 20 13 Oeste 24 Oeste 0 -- -- 54
2020-03-10 15:00:00 19.6 13 Oeste 22 Oeste 0 -- -- 52
2020-03-10 14:00:00 18.3 8 Oeste 14 Oeste 0 -- -- 52
2020-03-10 13:00:00 17.2 5 Oeste 14 Noroeste 0 -- -- 60
2020-03-10 12:00:00 14.3 5 Sudoeste 12 Sudoeste 0 -- -- 70
2020-03-10 11:00:00 12.4 2 Sudoeste 5 Oeste 0 -- -- 76
2020-03-10 10:00:00 7.8 0 Calma 4 Sur 0 -- -- 90
2020-03-10 09:00:00 5.7 3 Sudeste 6 Sudeste 0 -- -- 93
2020-03-10 08:00:00 3.9 3 Sudeste 5 Este 0 -- -- 97
2020-03-10 07:00:00 3.8 3 Este 6 Este 0 -- -- 98
2020-03-10 06:00:00 3.6 2 Sudeste 5 Sudeste 0 -- -- 94
2020-03-10 05:00:00 3.2 0 Calma 4 Sur 0 -- -- 97
2020-03-10 04:00:00 2.9 0 Calma 3 Nordeste 0 -- -- 97
2020-03-10 03:00:00 2.7 0 Calma 3 Nordeste 0 -- -- 96
2020-03-10 02:00:00 3.5 0 Calma 4 Nordeste 0 -- -- 94
2020-03-10 01:00:00 3.5 0 Calma 4 Nordeste 0 -- -- 95
2020-03-10 00:00:00 4.3 2 Este 4 Nordeste 0 -- -- 91
2020-03-09 23:00:00 4.9 2 Nordeste 3 Este 0 -- -- 88
2020-03-09 22:00:00 5.8 0 Calma 4 Oeste 0 -- -- 87
2020-03-09 21:00:00 7.4 3 Noroeste 6 Oeste 0 -- -- 79
2020-03-09 20:00:00 10.3 3 Sudoeste 12 Sudoeste 0 -- -- 67
2020-03-09 19:00:00 12.8 6 Sudoeste 13 Sudoeste 0 -- -- 60
2020-03-09 18:00:00 14.3 8 Oeste 19 Noroeste 0 -- -- 53
2020-03-09 17:00:00 15.1 7 Oeste 14 Noroeste 0 -- -- 47
2020-03-09 16:00:00 14.3 5 Sudoeste 13 Sudoeste 0 -- -- 46
2020-03-09 15:00:00 13.3 4 Oeste 18 Oeste 0 -- -- 53
2020-03-09 14:00:00 11.8 10 Oeste 18 Oeste 0 -- -- 58
2020-03-09 13:00:00 10.7 7 Oeste 14 Oeste 0 -- -- 67
2020-03-09 12:00:00 9.4 5 Noroeste 13 Oeste 0 -- -- 70
2020-03-09 11:00:00 7.8 7 Oeste 13 Oeste 0 -- -- 78
2020-03-09 10:00:00 6.1 5 Oeste 10 Oeste 0 -- -- 90
2020-03-09 09:00:00 3.6 0 Calma 6 Oeste 0 -- -- 97
2020-03-09 08:00:00 3 5 Noroeste 10 Oeste 0 -- -- 96
2020-03-09 07:00:00 3.1 7 Noroeste 10 Oeste 0 -- -- 95
2020-03-09 06:00:00 2.9 0 Calma 9 Noroeste 0 -- -- 95
2020-03-09 05:00:00 3.8 6 Oeste 13 Noroeste 0 -- -- 96
2020-03-09 04:00:00 4.1 4 Sudoeste 11 Noroeste 0 -- -- 92
2020-03-09 03:00:00 5.3 3 Noroeste 21 Oeste 0 -- -- 88
2020-03-09 02:00:00 6.3 12 Noroeste 21 Noroeste 0 -- -- 86
2020-03-09 01:00:00 6.3 5 Noroeste 19 Oeste 0 -- -- 91
2020-03-09 00:00:00 7.1 4 Oeste 18 Oeste 0 -- -- 93
2020-03-08 23:00:00 7.9 11 Oeste 22 Oeste 0 -- -- 95
2020-03-08 22:00:00 8.2 13 Oeste 24 Oeste 0 -- -- 95
2020-03-08 21:00:00 8.5 9 Noroeste 21 Noroeste 0 -- -- 93
2020-03-08 20:00:00 9 8 Oeste 21 Oeste 0 -- -- 89
2020-03-08 19:00:00 10.7 13 Oeste 24 Oeste 0 -- -- 82
2020-03-08 18:00:00 11.2 11 Oeste 31 Oeste 0 -- -- 79
2020-03-08 17:00:00 11.4 14 Oeste 26 Oeste 0 -- -- 80
2020-03-08 16:00:00 11.5 14 Oeste 24 Oeste 0 -- -- 77
2020-03-08 15:00:00 10.4 12 Oeste 20 Sudoeste 0 -- -- 77
2020-03-08 14:00:00 8.5 9 Oeste 23 Oeste 0 -- -- 83
2020-03-08 13:00:00 8.3 12 Oeste 23 Oeste 0 -- -- 85
2020-03-08 12:00:00 7.8 8 Oeste 20 Oeste 0 -- -- 84
2020-03-08 11:00:00 6.7 12 Oeste 19 Oeste 0 -- -- 91
2020-03-08 10:00:00 5.3 6 Oeste 13 Oeste 0 -- -- 100
2020-03-08 09:00:00 3 6 Sudoeste 12 Sudoeste 0 -- -- 100
2020-03-08 08:00:00 1.6 0 Calma 5 Sudoeste 0 -- -- 99
2020-03-08 07:00:00 2.9 6 Oeste 14 Oeste 0 -- -- 99
2020-03-08 06:00:00 2.2 7 Oeste 11 Oeste 0 -- -- 100
2020-03-08 05:00:00 -0.2 0 Calma 4 Oeste 0 -- -- 97
2020-03-08 04:00:00 -0.1 0 Calma 3 Sudeste 0 -- -- 96
2020-03-08 03:00:00 0.6 0 Calma 4 Oeste 0 -- -- 94
2020-03-08 02:00:00 0.6 3 Sudeste 4 Sudeste 0 -- -- 98
2020-03-08 01:00:00 0.8 2 Nordeste 3 Nordeste 0 -- -- 97
2020-03-08 00:00:00 1.3 3 Este 4 Este 0 -- -- 97
2020-03-07 23:00:00 1.9 2 Nordeste 4 Nordeste 0 -- -- 95
2020-03-07 22:00:00 3.1 3 Nordeste 4 Nordeste 0 -- -- 92
2020-03-07 21:00:00 4.6 0 Calma 4 Oeste 0 -- -- 90
2020-03-07 20:00:00 9.1 3 Noroeste 9 Noroeste 0 -- -- 72
2020-03-07 19:00:00 13 5 Oeste 17 Oeste 0 -- -- 63
2020-03-07 18:00:00 13.6 6 Oeste 17 Oeste 0 -- -- 59
2020-03-07 17:00:00 13.7 6 Sudoeste 17 Sudoeste 0 -- -- 59
2020-03-07 16:00:00 13.2 4 Oeste 17 Oeste 0 -- -- 62
2020-03-07 15:00:00 12.4 6 Sur 15 Sudoeste 0 -- -- 63
2020-03-07 14:00:00 11.6 5 Sudoeste 14 Sudoeste 0 -- -- 64
2020-03-07 13:00:00 10.7 3 Sudeste 16 Este 0 -- -- 69
2020-03-07 12:00:00 9.8 5 Sur 12 Sur 0 -- -- 75
2020-03-07 11:00:00 7.5 4 Oeste 9 Sudoeste 0 -- -- 84
2020-03-07 10:00:00 5 4 Sur 6 Sur 0 -- -- 93
2020-03-07 09:00:00 1.8 0 Calma 3 Sur 0 -- -- 99
2020-03-07 08:00:00 0.6 0 Calma 2 Sudeste 0 -- -- 96
2020-03-07 07:00:00 2.5 0 Calma 10 Noroeste 0 -- -- 91
2020-03-07 06:00:00 3.2 4 Noroeste 9 Noroeste 0 -- -- 94
2020-03-07 05:00:00 2.8 0 Calma 9 Noroeste 0 -- -- 91
2020-03-07 04:00:00 3.2 2 Oeste 8 Noroeste 0 -- -- 89
2020-03-07 03:00:00 3.1 3 Noroeste 9 Noroeste 0 -- -- 87
2020-03-07 02:00:00 3.1 4 Noroeste 12 Noroeste 0 -- -- 84
2020-03-07 01:00:00 3.4 4 Noroeste 17 Oeste 0 -- -- 80
2020-03-07 00:00:00 4 9 Noroeste 26 Noroeste 0 -- -- 78
2020-03-06 23:00:00 4.7 12 Noroeste 27 Noroeste 0 -- -- 71
2020-03-06 22:00:00 4.7 4 Noroeste 23 Noroeste 0 -- -- 70
2020-03-06 21:00:00 5.6 9 Noroeste 24 Noroeste 0 -- -- 66
2020-03-06 20:00:00 6.3 6 Noroeste 30 Noroeste 0 -- -- 62
2020-03-06 19:00:00 8.1 14 Noroeste 33 Noroeste 0 -- -- 53
2020-03-06 18:00:00 9.4 14 Noroeste 42 Oeste 0 -- -- 60
2020-03-06 17:00:00 9.9 20 Noroeste 42 Oeste 0 -- -- 50
2020-03-06 16:00:00 9.6 21 Noroeste 45 Noroeste 0 -- -- 61
2020-03-06 15:00:00 9.2 22 Oeste 45 Oeste 0 -- -- 65
2020-03-06 14:00:00 8.5 19 Noroeste 39 Oeste 0 -- -- 69
2020-03-06 13:00:00 7.6 22 Noroeste 44 Noroeste 0 -- -- 73
2020-03-06 12:00:00 7 19 Noroeste 43 Noroeste 0.2 -- -- 75
2020-03-06 11:00:00 6.2 20 Noroeste 48 Noroeste 0 -- -- 78
2020-03-06 10:00:00 4.8 26 Noroeste 41 Noroeste 0 -- -- 84
2020-03-06 09:00:00 4.2 15 Noroeste 35 Oeste 0 -- -- 87
2020-03-06 08:00:00 4.1 12 Oeste 36 Oeste 0 -- -- 89
2020-03-06 07:00:00 4.3 13 Noroeste 37 Oeste 0.2 -- -- 93
2020-03-06 06:00:00 4.8 14 Oeste 33 Oeste 0 -- -- 93
2020-03-06 05:00:00 5 15 Oeste 35 Oeste 0 -- -- 95
2020-03-06 04:00:00 5 16 Oeste 32 Oeste 0.8 -- -- 95
2020-03-06 03:00:00 5.2 17 Oeste 31 Oeste 0.8 -- -- 98
2020-03-06 02:00:00 5.3 15 Sudoeste 32 Sudoeste 0 -- -- 95
2020-03-06 01:00:00 5.2 14 Sudoeste 24 Oeste 0 -- -- 93
2020-03-06 00:00:00 5 11 Oeste 23 Oeste 0 -- -- 92
2020-03-05 23:00:00 5.2 9 Oeste 23 Oeste 0 -- -- 89
2020-03-05 22:00:00 5.5 5 Oeste 17 Oeste 0 -- -- 92
2020-03-05 21:00:00 5.8 5 Oeste 31 Noroeste 0.4 -- -- 91
2020-03-05 20:00:00 7 15 Oeste 41 Noroeste 0.2 -- -- 88
2020-03-05 19:00:00 8 15 Noroeste 32 Noroeste 0 -- -- 82
2020-03-05 18:00:00 8.5 12 Noroeste 31 Noroeste 1 -- -- 91
2020-03-05 17:00:00 10.8 13 Noroeste 35 Noroeste 1 -- -- 81
2020-03-05 16:00:00 10.3 27 Oeste 50 Oeste 0.4 -- -- 79
2020-03-05 15:00:00 11 24 Oeste 50 Oeste 0 -- -- 76
2020-03-05 14:00:00 10.2 26 Oeste 47 Oeste 0 -- -- 79
2020-03-05 13:00:00 9 20 Oeste 38 Oeste 0 -- -- 81
2020-03-05 12:00:00 8.7 23 Oeste 43 Oeste 0 -- -- 78
2020-03-05 11:00:00 8.7 32 Oeste 50 Oeste 0 -- -- 79
2020-03-05 10:00:00 7.3 23 Oeste 44 Oeste 0 -- -- 90
2020-03-05 09:00:00 6.6 28 Oeste 67 Noroeste 0.8 -- -- 91
2020-03-05 08:00:00 9.2 28 Oeste 51 Oeste 2.8 -- -- 98
2020-03-05 07:00:00 9.8 27 Sudoeste 49 Sudoeste 0.2 -- -- 94
2020-03-05 06:00:00 10 21 Sudoeste 38 Sudoeste 0 -- -- 91
2020-03-05 05:00:00 10.2 15 Sudoeste 43 Sudoeste 0 -- -- 92
2020-03-05 04:00:00 10.2 19 Sudoeste 41 Oeste 0 -- -- 95
2020-03-05 03:00:00 10.4 25 Sudoeste 58 Sudoeste 0.2 -- -- 95
2020-03-05 02:00:00 10.5 20 Sudoeste 34 Sudoeste 0 -- -- 98
2020-03-05 01:00:00 10.7 21 Sudoeste 36 Sudoeste 0 -- -- 96
2020-03-05 00:00:00 11 17 Sudoeste 34 Oeste 0 -- -- 95
2020-03-04 23:00:00 11.1 14 Sudoeste 29 Oeste 0 -- -- 94
2020-03-04 22:00:00 11.1 13 Oeste 24 Oeste 0 -- -- 94
2020-03-04 21:00:00 11.5 15 Sudoeste 26 Oeste 0 -- -- 91
2020-03-04 20:00:00 11.9 10 Sudoeste 24 Sudoeste 0 -- -- 87
2020-03-04 19:00:00 12.7 11 Oeste 24 Oeste 0 -- -- 84
2020-03-04 18:00:00 12.7 12 Oeste 28 Sudoeste 0 -- -- 84
2020-03-04 17:00:00 13 12 Oeste 28 Noroeste 0 -- -- 79
2020-03-04 16:00:00 13.1 15 Oeste 28 Oeste 0 -- -- 77
2020-03-04 15:00:00 12.5 15 Oeste 32 Oeste 0 -- -- 79
2020-03-04 14:00:00 13 15 Oeste 35 Oeste 0 -- -- 80
2020-03-04 13:00:00 12.2 17 Oeste 30 Oeste 0 -- -- 82
2020-03-04 12:00:00 11.2 16 Oeste 27 Oeste 0 -- -- 88
2020-03-04 11:00:00 10.9 13 Oeste 24 Oeste 0 -- -- 90
2020-03-04 10:00:00 9.9 12 Oeste 24 Oeste 0 -- -- 95
2020-03-04 09:00:00 9.3 12 Oeste 24 Sudoeste 0 -- -- 97
2020-03-04 08:00:00 9.2 10 Oeste 21 Oeste 0 -- -- 97
2020-03-04 07:00:00 9.4 11 Oeste 28 Oeste 0 -- -- 98
2020-03-04 06:00:00 9.8 12 Oeste 25 Oeste 0 -- -- 97
2020-03-04 05:00:00 10.2 15 Oeste 29 Sudoeste 0 -- -- 97
2020-03-04 04:00:00 10.4 16 Oeste 32 Oeste 0.2 -- -- 96
2020-03-04 03:00:00 10.7 12 Oeste 29 Oeste 0 -- -- 97
2020-03-04 02:00:00 10.9 14 Oeste 28 Oeste 0 -- -- 96
2020-03-04 01:00:00 11.1 14 Oeste 31 Sudoeste 0 -- -- 96
2020-03-04 00:00:00 11.3 11 Oeste 23 Oeste 0 -- -- 97
2020-03-03 23:00:00 11.7 9 Oeste 28 Sudoeste 0 -- -- 93
2020-03-03 22:00:00 11.9 10 Oeste 26 Oeste 0 -- -- 91
2020-03-03 21:00:00 12.1 9 Oeste 24 Oeste 0 -- -- 90
2020-03-03 20:00:00 12.4 15 Oeste 36 Noroeste 0 -- -- 88
2020-03-03 19:00:00 12.7 17 Oeste 37 Oeste 0 -- -- 87
2020-03-03 18:00:00 13.2 21 Oeste 42 Oeste 0 -- -- 85
2020-03-03 17:00:00 13.2 21 Oeste 40 Oeste 0.4 -- -- 86
2020-03-03 16:00:00 13.5 24 Oeste 51 Oeste 0 -- -- 83
2020-03-03 15:00:00 14.9 29 Noroeste 53 Oeste 0 -- -- 78
2020-03-03 14:00:00 13.4 28 Oeste 57 Noroeste 0 -- -- 85
2020-03-03 13:00:00 12.4 22 Oeste 46 Oeste 0 -- -- 87
2020-03-03 12:00:00 11 24 Oeste 43 Oeste 0 -- -- 90
2020-03-03 11:00:00 9.1 21 Oeste 48 Oeste 0 -- -- 95
2020-03-03 10:00:00 8.1 25 Oeste 42 Oeste 0 -- -- 96
2020-03-03 09:00:00 7.4 23 Oeste 45 Sudoeste 0 -- -- 95
2020-03-03 08:00:00 7 24 Oeste 48 Sudoeste 0 -- -- 94
2020-03-03 07:00:00 6.6 24 Oeste 45 Oeste 0 -- -- 96
2020-03-03 06:00:00 6.5 25 Oeste 46 Sudoeste 0 -- -- 95
2020-03-03 05:00:00 5.7 20 Oeste 37 Oeste 0 -- -- 97
2020-03-03 04:00:00 5.2 21 Sudoeste 35 Sudoeste 0 -- -- 95
2020-03-03 03:00:00 5 20 Sudoeste 34 Sudoeste 0 -- -- 91
2020-03-03 02:00:00 4.6 18 Sudoeste 32 Sudoeste 0 -- -- 90
2020-03-03 01:00:00 4.6 15 Sudoeste 28 Sudoeste 0 -- -- 89
2020-03-03 00:00:00 4.1 6 Sudoeste 23 Sudoeste 0 -- -- 87